Salitral, Costa Rica

8:38 AM CST on February 09, 2016 (GMT -0600)
Pozos de Santa Ana | | Change Station
CLOSE
Current Station
Personal Weather Station
Location: San Jose, San Jose
Elevation: 2825 ft
Nearby Weather Stations

Elev 2825 ft 9.96 °N, 84.19 °W | Updated 4 seconds ago

Partly Cloudy
Partly Cloudy
75.7 °F
Feels Like 77 °F
N
16.8
Wind Variable Wind from East
Gusts 19.9 mph

Today
High -- | Low -- °F
--% Chance of Precip.
Yesterday
High -- | Low -- °F
Precip. -- in
Pressure 30.09 in
Visibility 6.2 miles
Clouds Few 2000 ft
Heat Index 77 °F
Dew Point 67 °F
Humidity 73%
Rainfall 0.00 in
Snow Depth Not available.
5:58 AM 5:44 PM
New Moon, 1% visible
METAR MRPV 091400Z 10014G24KT 9999 FEW020 21/15 A3009 NOSIG
Pressure 30.09 in
Visibility 6.2 miles
Clouds Few 2000 ft
Heat Index 77 °F
Dew Point 67 °F
Humidity 73%
Rainfall 0.00 in
Snow Depth Not available.
5:58 AM 5:44 PM
New Moon, 1% visible
METAR MRPV 091400Z 10014G24KT 9999 FEW020 21/15 A3009 NOSIG

10-Day Weather Forecast

No radar image for this location.
×

Almanac

Astronomy

Feb. 09, 2016 Rise Set
Actual Time
Civil Twilight
Nautical Twilight
Astronomical Twilight
Moon
Length of Visible Light
Length of Day
Tomorrow will be .
, % of the Moon is Illuminated

Today's Extremes

Country Highs Country Lows

Community

WunderPhotos

Upload Photos

1,891,606 photos uploaded!

WunderBlog® & News

Nearby

Air Quality

  Air Quality AQ Index Pollutant
Not available.

Snow Depth

Station Depth Elevation

Earthquake Activity

City Distance Mag. Time & Date
Minimum magnitude displayed is 2.5.

Coastal Water Temperatures

Place Temperature

Stations

Nearby Weather Stations

Station Location Temp. Windchill Dew Point Humidity Wind Precip. Elev Updated Type